createdAt,value
2018-12-18T00:01:29.046Z,50.30
2018-12-18T00:03:54.854Z,52.62
2018-12-18T00:06:20.578Z,51.87
2018-12-18T00:08:46.503Z,53.53
2018-12-18T00:11:12.239Z,50.80
2018-12-18T00:13:38.055Z,52.77
2018-12-18T00:16:03.970Z,54.27
2018-12-18T00:18:29.686Z,52.03
2018-12-18T00:20:56.054Z,52.37
2018-12-18T00:23:22.010Z,53.13
2018-12-18T00:25:47.727Z,56.07
2018-12-18T00:28:14.340Z,55.37
2018-12-18T00:30:42.451Z,56.05
2018-12-18T00:33:08.394Z,55.67
2018-12-18T00:35:34.120Z,59.27
2018-12-18T00:38:01.374Z,52.53
2018-12-18T00:40:27.100Z,54.23
2018-12-18T00:42:52.818Z,56.23
2018-12-18T00:45:18.646Z,55.33
2018-12-18T00:47:44.586Z,54.20
2018-12-18T00:50:10.517Z,54.90
2018-12-18T00:52:37.453Z,58.37
2018-12-18T00:55:05.045Z,55.53
2018-12-18T00:57:30.762Z,58.73
2018-12-18T00:59:56.482Z,61.37
2018-12-18T01:02:22.330Z,58.33
2018-12-18T01:04:48.049Z,60.57
2018-12-18T01:07:13.982Z,63.33
2018-12-18T01:09:39.690Z,58.40
2018-12-18T01:12:06.320Z,59.93
2018-12-18T01:14:32.048Z,62.20
2018-12-18T01:16:57.767Z,64.70
2018-12-18T01:19:23.486Z,58.00
2018-12-18T01:21:49.204Z,59.37
2018-12-18T01:24:15.039Z,54.53
2018-12-18T01:26:40.747Z,56.27
2018-12-18T01:29:06.475Z,56.87
2018-12-18T01:31:34.491Z,52.37
2018-12-18T01:34:00.226Z,58.57
2018-12-18T01:36:25.938Z,57.73
2018-12-18T01:38:51.658Z,55.97
2018-12-18T01:41:17.362Z,56.63
2018-12-18T01:43:43.178Z,60.37
2018-12-18T01:46:08.897Z,59.93
2018-12-18T01:48:34.615Z,61.33
2018-12-18T01:51:00.327Z,55.13
2018-12-18T01:53:26.048Z,55.47
2018-12-18T01:55:51.763Z,55.37
2018-12-18T01:58:17.588Z,54.77
2018-12-18T02:00:43.308Z,59.50
2018-12-18T02:03:09.188Z,56.43
2018-12-18T02:05:34.994Z,55.53
2018-12-18T02:08:00.712Z,56.73
2018-12-18T02:10:26.548Z,60.43
2018-12-18T02:12:52.266Z,56.00
2018-12-18T02:15:18.069Z,57.00
2018-12-18T02:17:43.790Z,57.83
2018-12-18T02:20:09.509Z,59.90
2018-12-18T02:22:35.362Z,55.00
2018-12-18T02:25:01.189Z,56.97
2018-12-18T02:27:26.895Z,57.60
2018-12-18T02:29:52.615Z,54.37
2018-12-18T02:32:18.343Z,53.83
2018-12-18T02:34:44.172Z,53.53
2018-12-18T02:37:09.879Z,55.43
2018-12-18T02:39:35.599Z,56.00
2018-12-18T02:42:01.466Z,52.93
2018-12-18T02:44:27.198Z,54.63
2018-12-18T02:46:53.025Z,56.30
2018-12-18T02:49:18.746Z,50.60
2018-12-18T02:51:44.465Z,57.40
2018-12-18T02:54:10.292Z,52.70
2018-12-18T02:56:36.012Z,53.80
2018-12-18T02:59:01.842Z,52.93
2018-12-18T03:01:27.676Z,51.27
2018-12-18T03:03:53.523Z,53.73
2018-12-18T03:06:19.334Z,53.23
2018-12-18T03:08:45.082Z,53.47
2018-12-18T03:11:12.923Z,52.67
2018-12-18T03:13:38.639Z,49.37
2018-12-18T03:16:04.463Z,51.93
2018-12-18T03:18:30.176Z,53.40
2018-12-18T03:20:55.894Z,51.67
2018-12-18T03:23:21.598Z,51.37
2018-12-18T03:25:47.411Z,49.73
2018-12-18T03:28:13.114Z,50.10
2018-12-18T03:30:38.888Z,48.30
2018-12-18T03:33:04.729Z,50.83
2018-12-18T03:35:30.455Z,54.27
2018-12-18T03:37:56.169Z,51.90
2018-12-18T03:40:21.999Z,54.57
2018-12-18T03:42:47.811Z,54.30
2018-12-18T03:45:13.649Z,52.77
2018-12-18T03:47:39.357Z,49.63
2018-12-18T03:50:05.293Z,49.83
2018-12-18T03:52:31.110Z,50.30
2018-12-18T03:54:56.822Z,48.77
2018-12-18T03:57:22.530Z,51.17
2018-12-18T03:59:48.267Z,53.67
2018-12-18T04:02:13.985Z,49.43
2018-12-18T04:04:39.695Z,50.30
2018-12-18T04:07:05.413Z,50.13
2018-12-18T04:09:31.151Z,49.47
2018-12-18T04:12:03.208Z,49.07
2018-12-18T04:14:28.929Z,50.13
2018-12-18T04:16:54.755Z,46.53
2018-12-18T04:19:20.570Z,49.47
2018-12-18T04:21:46.318Z,49.90
2018-12-18T04:24:12.115Z,51.93
2018-12-18T04:26:37.991Z,46.07
2018-12-18T04:29:03.710Z,49.50
2018-12-18T04:31:29.433Z,50.93
2018-12-18T04:33:55.146Z,49.17
2018-12-18T04:36:20.882Z,53.63
2018-12-18T04:38:46.592Z,49.60
2018-12-18T04:41:12.519Z,50.47
2018-12-18T04:43:38.296Z,49.33
2018-12-18T04:46:04.200Z,50.43
2018-12-18T04:48:30.057Z,51.80
2018-12-18T04:50:55.894Z,47.93
2018-12-18T04:53:21.738Z,52.87
2018-12-18T04:55:47.476Z,47.93
2018-12-18T04:58:13.216Z,47.80
2018-12-18T05:00:39.043Z,49.67
2018-12-18T05:03:04.783Z,47.30
2018-12-18T05:05:30.639Z,48.10
2018-12-18T05:07:56.386Z,51.73
2018-12-18T05:10:22.149Z,51.60
2018-12-18T05:12:47.878Z,48.93
2018-12-18T05:15:13.602Z,48.20
2018-12-18T05:17:39.323Z,50.33
2018-12-18T05:20:05.061Z,49.20
2018-12-18T05:22:30.811Z,52.43
2018-12-18T05:24:56.550Z,50.23
2018-12-18T05:27:22.470Z,49.10
2018-12-18T05:29:48.278Z,47.37
2018-12-18T05:32:14.210Z,46.67
2018-12-18T05:34:39.957Z,47.87
2018-12-18T05:37:05.804Z,47.33
2018-12-18T05:39:31.633Z,47.93
2018-12-18T05:41:57.371Z,47.73
2018-12-18T05:44:23.092Z,51.97
2018-12-18T05:46:48.825Z,48.40
2018-12-18T05:49:14.667Z,52.77
2018-12-18T05:51:40.412Z,47.90
2018-12-18T05:54:06.161Z,48.87
2018-12-18T05:56:31.878Z,49.77
2018-12-18T05:58:57.707Z,49.37
2018-12-18T06:01:23.540Z,51.13
2018-12-18T06:03:49.271Z,48.03
2018-12-18T06:06:15.092Z,49.90
2018-12-18T06:08:40.839Z,49.33
2018-12-18T06:11:06.566Z,46.87
2018-12-18T06:13:32.307Z,45.60
2018-12-18T06:15:58.042Z,46.33
2018-12-18T06:18:23.771Z,45.23
2018-12-18T06:20:49.494Z,44.47
2018-12-18T06:23:15.234Z,45.10
2018-12-18T06:25:41.067Z,46.70
2018-12-18T06:28:06.798Z,46.07
2018-12-18T06:30:32.515Z,47.90
2018-12-18T06:32:58.250Z,48.57
2018-12-18T06:35:24.000Z,44.73
2018-12-18T06:37:49.786Z,43.40
2018-12-18T06:40:15.534Z,49.97
2018-12-18T06:42:41.267Z,46.20
2018-12-18T06:45:07.105Z,49.90
2018-12-18T06:47:32.947Z,43.37
2018-12-18T06:49:58.686Z,42.53
2018-12-18T06:52:24.427Z,43.50
2018-12-18T06:54:50.164Z,44.57
2018-12-18T06:57:15.886Z,43.80
2018-12-18T06:59:41.735Z,44.10
2018-12-18T07:02:07.470Z,43.73
2018-12-18T07:04:33.207Z,42.87
2018-12-18T07:06:58.938Z,45.40
2018-12-18T07:09:24.682Z,45.37
2018-12-18T07:11:50.409Z,46.60
2018-12-18T07:14:16.149Z,43.23
2018-12-18T07:16:41.894Z,41.50
2018-12-18T07:19:07.732Z,40.97
2018-12-18T07:21:33.472Z,40.70
2018-12-18T07:23:59.195Z,40.63
2018-12-18T07:26:24.944Z,40.83
2018-12-18T07:28:50.783Z,43.77
2018-12-18T07:31:16.619Z,41.03
2018-12-18T07:33:42.447Z,38.77
2018-12-18T07:36:08.174Z,42.60
2018-12-18T07:38:33.911Z,42.27
2018-12-18T07:40:59.662Z,43.83
2018-12-18T07:43:25.399Z,47.30
2018-12-18T07:45:51.251Z,44.87
2018-12-18T07:48:16.987Z,52.23
2018-12-18T07:50:42.815Z,47.67
2018-12-18T07:53:08.538Z,46.73
2018-12-18T07:55:34.421Z,46.73
2018-12-18T07:58:00.219Z,46.10
2018-12-18T08:00:26.054Z,45.00
2018-12-18T08:02:51.779Z,44.23
2018-12-18T08:05:17.723Z,41.80
2018-12-18T08:07:43.547Z,40.20
2018-12-18T08:10:09.284Z,44.00
2018-12-18T08:12:35.038Z,41.87
2018-12-18T08:15:00.872Z,41.63
2018-12-18T08:17:26.601Z,40.43
2018-12-18T08:19:52.543Z,39.57
2018-12-18T08:22:18.258Z,44.40
2018-12-18T08:24:44.054Z,43.17
2018-12-18T08:27:10.018Z,44.77
2018-12-18T08:29:35.937Z,45.47
2018-12-18T08:32:01.938Z,43.40
2018-12-18T08:34:27.674Z,41.57
2018-12-18T08:36:53.377Z,39.20
2018-12-18T08:39:19.100Z,40.13
2018-12-18T08:41:44.822Z,37.83
2018-12-18T08:44:10.686Z,37.07
2018-12-18T08:46:36.440Z,38.73
2018-12-18T08:49:02.299Z,37.00
2018-12-18T08:51:28.204Z,37.17
2018-12-18T08:53:54.056Z,36.33
2018-12-18T08:56:19.766Z,36.53
2018-12-18T08:58:45.506Z,37.90
2018-12-18T09:01:11.365Z,37.20
2018-12-18T09:03:37.065Z,36.63
2018-12-18T09:06:02.981Z,39.47
2018-12-18T09:08:28.726Z,38.13
2018-12-18T09:10:54.442Z,40.00
2018-12-18T09:13:20.158Z,39.90
2018-12-18T09:15:52.005Z,42.47
2018-12-18T09:18:17.819Z,40.03
2018-12-18T09:20:43.536Z,42.30
2018-12-18T09:23:09.355Z,41.73
2018-12-18T09:25:35.074Z,43.73
2018-12-18T09:28:00.893Z,42.13
2018-12-18T09:30:26.611Z,42.67
2018-12-18T09:32:52.311Z,41.70
2018-12-18T09:35:18.131Z,42.37
2018-12-18T09:37:43.854Z,40.17
2018-12-18T09:40:09.785Z,42.13
2018-12-18T09:45:35.015Z,42.67
2018-12-18T09:48:00.723Z,41.03
2018-12-18T09:50:26.450Z,42.73
2018-12-18T09:52:52.182Z,41.90
2018-12-18T09:55:17.905Z,42.40
2018-12-18T09:58:00.957Z,38.83
2018-12-18T10:00:26.705Z,40.53
2018-12-18T10:02:52.539Z,41.33
2018-12-18T10:05:18.306Z,38.60
2018-12-18T10:07:51.066Z,38.03
2018-12-18T10:10:16.881Z,38.80
2018-12-18T10:12:42.893Z,39.80
2018-12-18T10:15:08.718Z,39.43
2018-12-18T10:17:34.426Z,37.57
2018-12-18T10:20:00.159Z,36.27
2018-12-18T10:22:25.880Z,37.27
2018-12-18T10:24:51.698Z,36.53
2018-12-18T10:27:17.525Z,40.63
2018-12-18T10:29:43.338Z,38.20
2018-12-18T10:32:09.062Z,35.40
2018-12-18T10:34:34.779Z,35.93
2018-12-18T10:37:00.506Z,32.03
2018-12-18T10:39:26.323Z,32.43
2018-12-18T10:41:52.056Z,34.03
2018-12-18T10:44:17.771Z,33.20
2018-12-18T10:46:43.494Z,29.17
2018-12-18T10:49:09.208Z,27.37
2018-12-18T10:51:35.026Z,28.37
2018-12-18T10:54:00.834Z,31.07
2018-12-18T10:56:26.543Z,29.73
2018-12-18T10:58:52.251Z,30.77
2018-12-18T11:01:24.094Z,29.83
2018-12-18T11:03:49.802Z,28.47
2018-12-18T11:06:15.523Z,28.87
2018-12-18T11:08:41.233Z,29.43
2018-12-18T11:11:06.963Z,30.23
2018-12-18T11:13:32.684Z,30.30
2018-12-18T11:15:58.385Z,28.70
2018-12-18T11:18:24.105Z,29.30
2018-12-18T11:20:49.934Z,32.17
2018-12-18T11:23:15.762Z,32.10
2018-12-18T11:25:41.482Z,31.07
2018-12-18T11:28:07.307Z,33.43
2018-12-18T11:30:33.127Z,37.73
2018-12-18T11:32:58.954Z,32.90
2018-12-18T11:35:24.674Z,35.30
2018-12-18T11:37:50.396Z,33.83
2018-12-18T11:40:16.210Z,35.30
2018-12-18T11:42:41.941Z,33.23
2018-12-18T11:45:07.779Z,33.07
2018-12-18T11:47:33.491Z,33.87
2018-12-18T11:49:59.193Z,31.77
2018-12-18T11:52:25.025Z,32.13
2018-12-18T11:54:50.738Z,31.60
2018-12-18T11:57:16.476Z,31.50
2018-12-18T11:59:42.184Z,31.30
2018-12-18T12:02:07.998Z,30.47
2018-12-18T12:04:33.726Z,30.67
2018-12-18T12:06:59.469Z,31.10
2018-12-18T12:09:25.335Z,30.13
2018-12-18T12:11:51.122Z,30.30
2018-12-18T12:14:16.854Z,30.20
2018-12-18T12:16:42.567Z,30.63
2018-12-18T12:19:08.299Z,30.10
2018-12-18T12:21:34.018Z,32.10
2018-12-18T12:23:59.735Z,31.77
2018-12-18T12:26:31.535Z,30.67
2018-12-18T12:28:57.350Z,31.87
2018-12-18T12:31:23.070Z,31.40
2018-12-18T12:33:48.794Z,31.87
2018-12-18T12:36:14.623Z,33.07
2018-12-18T12:38:40.362Z,33.97
2018-12-18T12:41:06.106Z,34.50
2018-12-18T12:43:31.844Z,36.47
2018-12-18T12:45:57.766Z,35.00
2018-12-18T12:48:25.757Z,36.30
2018-12-18T12:50:51.482Z,36.00
2018-12-18T12:53:17.571Z,36.80
2018-12-18T12:55:43.335Z,33.83
2018-12-18T12:58:09.039Z,35.03
2018-12-18T13:00:34.866Z,33.90
2018-12-18T13:03:07.491Z,33.53
2018-12-18T13:05:40.291Z,33.80
2018-12-18T13:08:06.027Z,33.90
2018-12-18T13:10:31.747Z,34.73
2018-12-18T13:12:57.450Z,33.93
2018-12-18T13:15:23.182Z,35.47
2018-12-18T13:17:48.905Z,36.07
2018-12-18T13:20:17.450Z,31.57
2018-12-18T13:22:43.852Z,32.13
2018-12-18T13:25:09.818Z,33.93
2018-12-18T13:27:35.526Z,33.13
2018-12-18T13:30:01.286Z,32.17
2018-12-18T13:32:27.266Z,31.63
2018-12-18T13:34:54.337Z,30.83
2018-12-18T13:37:20.119Z,32.70
2018-12-18T13:39:45.874Z,32.03
2018-12-18T13:42:11.583Z,31.63
2018-12-18T13:44:37.394Z,31.63
2018-12-18T13:47:03.211Z,32.17
2018-12-18T13:49:28.923Z,31.03
2018-12-18T13:51:54.641Z,32.57
2018-12-18T13:54:20.367Z,32.17
2018-12-18T13:56:46.070Z,31.57
2018-12-18T13:59:18.825Z,32.70
2018-12-18T14:01:44.655Z,32.83
2018-12-18T14:04:10.386Z,32.70
2018-12-18T14:06:36.121Z,33.27
2018-12-18T14:09:02.654Z,34.07
2018-12-18T14:11:28.378Z,34.93
2018-12-18T14:13:54.181Z,36.03
2018-12-18T14:16:19.898Z,35.27
2018-12-18T14:18:46.861Z,37.47
2018-12-18T14:21:13.934Z,37.60
2018-12-18T14:23:39.669Z,38.50
2018-12-18T14:26:05.690Z,39.70
2018-12-18T14:28:31.425Z,40.53
2018-12-18T14:30:57.237Z,39.67
2018-12-18T14:33:23.464Z,39.80
2018-12-18T14:35:49.339Z,40.83
2018-12-18T14:38:15.053Z,41.80
2018-12-18T14:40:40.769Z,41.87
2018-12-18T14:43:06.540Z,42.33
2018-12-18T14:45:32.455Z,41.83
2018-12-18T14:47:58.352Z,43.43
2018-12-18T14:50:24.110Z,44.03
2018-12-18T14:52:49.854Z,44.13
2018-12-18T14:55:15.575Z,43.60
2018-12-18T14:57:41.424Z,41.33
2018-12-18T15:00:07.494Z,45.63
2018-12-18T15:02:33.206Z,44.73
2018-12-18T15:04:58.931Z,46.07
2018-12-18T15:07:24.663Z,43.70
2018-12-18T15:09:50.447Z,45.23
2018-12-18T15:12:16.256Z,44.80
2018-12-18T15:14:42.018Z,45.00
2018-12-18T15:17:07.847Z,47.57
2018-12-18T15:19:40.509Z,43.67
2018-12-18T15:22:13.185Z,44.93
2018-12-18T15:24:39.018Z,43.43
2018-12-18T15:27:04.778Z,43.07
2018-12-18T15:29:30.589Z,44.10
2018-12-18T15:31:56.303Z,44.17
2018-12-18T15:34:22.151Z,40.17
2018-12-18T15:36:47.992Z,42.43
2018-12-18T15:39:13.702Z,40.00
2018-12-18T15:41:39.418Z,39.63
2018-12-18T15:44:05.167Z,36.17
2018-12-18T15:46:30.912Z,32.60
2018-12-18T15:48:56.634Z,35.20
2018-12-18T15:51:22.346Z,35.50
2018-12-18T15:53:48.054Z,33.30
2018-12-18T15:56:13.813Z,32.87
2018-12-18T15:58:39.521Z,32.37
2018-12-18T16:01:05.346Z,30.60
2018-12-18T16:03:31.068Z,30.33
2018-12-18T16:05:56.896Z,29.63
2018-12-18T16:08:22.609Z,31.13
2018-12-18T16:10:48.328Z,29.07
2018-12-18T16:13:14.026Z,28.20
2018-12-18T16:15:39.796Z,27.03
2018-12-18T16:18:05.512Z,27.30
2018-12-18T16:20:31.231Z,27.33
2018-12-18T16:22:57.047Z,27.47
2018-12-18T16:25:23.954Z,26.17
2018-12-18T16:27:49.675Z,27.13
2018-12-18T16:30:15.569Z,26.33
2018-12-18T16:32:41.365Z,26.80
2018-12-18T16:35:07.165Z,24.87
2018-12-18T16:37:33.047Z,24.03
2018-12-18T16:42:31.308Z,27.13
2018-12-18T16:44:57.119Z,27.07
2018-12-18T16:47:22.951Z,27.00
2018-12-18T16:49:48.656Z,25.47
2018-12-18T16:52:14.386Z,24.47
2018-12-18T16:54:40.312Z,23.70
2018-12-18T16:57:06.249Z,22.20
2018-12-18T16:59:32.168Z,24.53
2018-12-18T17:01:58.002Z,24.23
2018-12-18T17:04:23.823Z,22.70
2018-12-18T17:06:49.650Z,21.27
2018-12-18T17:09:15.366Z,22.63
2018-12-18T17:11:48.192Z,21.87
2018-12-18T17:14:13.999Z,21.77
2018-12-18T17:16:39.780Z,21.17
2018-12-18T17:19:05.571Z,21.60
2018-12-18T17:21:31.475Z,20.30
2018-12-18T17:23:57.237Z,20.50
2018-12-18T17:26:23.138Z,20.20
2018-12-18T17:28:49.060Z,21.47
2018-12-18T17:31:14.793Z,19.67
2018-12-18T17:33:40.607Z,20.97
2018-12-18T17:36:06.338Z,20.40
2018-12-18T17:38:32.965Z,19.33
2018-12-18T17:40:58.787Z,20.00
2018-12-18T17:43:25.014Z,20.07
2018-12-18T17:45:57.959Z,18.10
2018-12-18T17:48:23.695Z,20.47
2018-12-18T17:50:49.505Z,19.20
2018-12-18T17:53:15.218Z,19.43
2018-12-18T17:55:40.918Z,19.30
2018-12-18T17:58:06.647Z,19.57
2018-12-18T18:00:32.420Z,19.43
2018-12-18T18:02:58.188Z,20.37
2018-12-18T18:05:23.964Z,19.83
2018-12-18T18:07:49.700Z,20.10
2018-12-18T18:10:15.411Z,20.60
2018-12-18T18:12:41.141Z,20.70
2018-12-18T18:15:06.954Z,19.53
2018-12-18T18:17:32.675Z,18.70
2018-12-18T18:19:58.909Z,19.47
2018-12-18T18:22:24.747Z,18.70
2018-12-18T18:24:50.676Z,18.70
2018-12-18T18:27:16.399Z,19.53
2018-12-18T18:29:42.101Z,17.60
2018-12-18T18:32:07.873Z,18.63
2018-12-18T18:34:33.614Z,18.47
2018-12-18T18:36:59.432Z,18.70
2018-12-18T18:39:25.170Z,18.90
2018-12-18T18:41:51.005Z,19.47
2018-12-18T18:44:16.730Z,19.80
2018-12-18T18:46:42.466Z,17.60
2018-12-18T18:49:08.182Z,16.80
2018-12-18T18:51:33.911Z,18.57
2018-12-18T18:53:59.638Z,18.63
2018-12-18T18:56:25.670Z,17.37
2018-12-18T18:58:51.521Z,17.40
2018-12-18T19:01:17.259Z,18.13
2018-12-18T19:03:43.082Z,18.30
2018-12-18T19:06:08.941Z,18.57
2018-12-18T19:08:34.786Z,17.13
2018-12-18T19:11:00.521Z,19.07
2018-12-18T19:13:26.257Z,17.80
2018-12-18T19:15:51.982Z,17.90
2018-12-18T19:18:17.719Z,18.53
2018-12-18T19:20:43.440Z,19.87
2018-12-18T19:23:09.260Z,20.00
2018-12-18T19:25:34.986Z,20.23
2018-12-18T19:28:00.697Z,21.03
2018-12-18T19:30:26.427Z,20.13
2018-12-18T19:32:52.151Z,18.70
2018-12-18T19:35:17.869Z,18.23
2018-12-18T19:37:43.680Z,18.43
2018-12-18T19:40:09.423Z,20.10
2018-12-18T19:42:35.364Z,19.43
2018-12-18T19:45:01.312Z,19.10
2018-12-18T19:47:27.035Z,19.63
2018-12-18T19:49:52.975Z,18.87
2018-12-18T19:52:18.782Z,17.63
2018-12-18T19:54:44.509Z,18.30
2018-12-18T19:57:10.218Z,18.47
2018-12-18T19:59:35.953Z,20.87
2018-12-18T20:02:01.788Z,18.27
2018-12-18T20:04:34.686Z,18.67
2018-12-18T20:07:00.425Z,18.05
2018-12-18T20:09:26.263Z,18.67
2018-12-18T20:11:51.983Z,18.30
2018-12-18T20:14:17.718Z,18.73
2018-12-18T20:16:43.543Z,18.87
2018-12-18T20:19:09.390Z,19.13
2018-12-18T20:21:35.210Z,18.60
2018-12-18T20:24:00.919Z,18.17
2018-12-18T20:26:26.635Z,19.07
2018-12-18T20:28:52.457Z,20.27
2018-12-18T20:31:18.185Z,20.40
2018-12-18T20:33:43.891Z,20.03
2018-12-18T20:36:09.618Z,19.17
2018-12-18T20:38:35.338Z,19.57
2018-12-18T20:41:01.170Z,19.83
2018-12-18T20:43:26.890Z,18.93
2018-12-18T20:45:52.614Z,19.43
2018-12-18T20:48:18.425Z,18.37
2018-12-18T20:50:44.146Z,19.33
2018-12-18T20:53:09.959Z,20.70
2018-12-18T20:55:35.692Z,20.30
2018-12-18T20:58:01.401Z,18.43
2018-12-18T21:00:27.127Z,18.50
2018-12-18T21:02:52.835Z,18.33
2018-12-18T21:05:18.787Z,19.20
2018-12-18T21:07:44.934Z,21.23
2018-12-18T21:10:10.871Z,20.52
2018-12-18T21:12:36.690Z,20.00
2018-12-18T21:15:03.020Z,20.37
2018-12-18T21:17:28.830Z,21.90
2018-12-18T21:19:54.614Z,21.43
2018-12-18T21:22:20.402Z,23.23
2018-12-18T21:24:46.201Z,22.57
2018-12-18T21:27:12.011Z,22.47
2018-12-18T21:29:37.815Z,23.73
2018-12-18T21:32:03.731Z,24.13
2018-12-18T21:34:29.523Z,24.00
2018-12-18T21:36:55.422Z,25.30
2018-12-18T21:39:21.230Z,24.87
2018-12-18T21:41:47.031Z,24.10
2018-12-18T21:44:12.826Z,25.20
2018-12-18T21:46:38.639Z,25.63
2018-12-18T21:49:04.435Z,25.03
2018-12-18T21:51:30.230Z,24.70
2018-12-18T21:53:56.037Z,25.90
2018-12-18T21:56:21.823Z,23.83
2018-12-18T21:58:47.727Z,25.23
2018-12-18T22:01:13.506Z,24.20
2018-12-18T22:03:39.298Z,24.67
2018-12-18T22:06:05.090Z,27.10
2018-12-18T22:08:36.721Z,26.80
2018-12-18T22:10:58.690Z,23.87
2018-12-18T22:13:24.492Z,23.83
2018-12-18T22:15:50.295Z,23.03
2018-12-18T22:18:16.102Z,22.30
2018-12-18T22:20:41.895Z,21.47
2018-12-18T22:23:07.694Z,22.87
2018-12-18T22:25:36.487Z,22.43
2018-12-18T22:28:02.423Z,22.13
2018-12-18T22:30:28.150Z,20.80
2018-12-18T22:32:53.862Z,23.23
2018-12-18T22:35:19.586Z,23.03
2018-12-18T22:37:45.324Z,22.73
2018-12-18T22:40:11.042Z,22.87
2018-12-18T22:42:36.780Z,22.43
2018-12-18T22:45:02.911Z,22.53
2018-12-18T22:47:28.650Z,21.95
2018-12-18T22:49:54.382Z,22.30
2018-12-18T22:52:20.102Z,21.47
2018-12-18T22:54:45.827Z,22.80
2018-12-18T22:57:11.646Z,21.30
2018-12-18T22:59:37.378Z,23.20
2018-12-18T23:02:05.210Z,21.70
2018-12-18T23:04:31.350Z,21.97
2018-12-18T23:06:57.079Z,21.97
2018-12-18T23:09:22.814Z,21.60
2018-12-18T23:11:48.690Z,21.33
2018-12-18T23:14:14.434Z,19.93
2018-12-18T23:16:40.153Z,21.30
2018-12-18T23:19:05.996Z,21.80
2018-12-18T23:21:31.938Z,22.47
2018-12-18T23:23:57.761Z,20.47
2018-12-18T23:26:24.295Z,20.67
2018-12-18T23:28:50.013Z,21.82
2018-12-18T23:31:15.835Z,20.57
2018-12-18T23:33:41.554Z,21.20
2018-12-18T23:36:07.281Z,20.90
2018-12-18T23:38:33.007Z,21.37
2018-12-18T23:40:58.831Z,20.73
2018-12-18T23:43:24.761Z,21.80
2018-12-18T23:45:50.495Z,20.70
2018-12-18T23:48:16.422Z,20.17
2018-12-18T23:50:42.252Z,20.73
2018-12-18T23:53:07.970Z,21.77
2018-12-18T23:55:33.682Z,21.03
2018-12-18T23:57:59.403Z,21.07
